createdAt,value
2018-12-07T00:01:42.281Z,94.50
2018-12-07T00:02:20.344Z,94.50
2018-12-07T00:02:58.246Z,94.50
2018-12-07T00:03:37.234Z,94.50
2018-12-07T00:04:15.181Z,94.50
2018-12-07T00:04:53.212Z,94.50
2018-12-07T00:05:31.091Z,94.60
2018-12-07T00:06:10.333Z,94.60
2018-12-07T00:06:48.382Z,94.60
2018-12-07T00:07:26.382Z,94.60
2018-12-07T00:08:04.304Z,94.60
2018-12-07T00:08:42.379Z,94.60
2018-12-07T00:09:20.416Z,94.60
2018-12-07T00:09:59.265Z,94.70
2018-12-07T00:10:38.004Z,94.70
2018-12-07T00:11:15.855Z,94.70
2018-12-07T00:11:53.807Z,94.70
2018-12-07T00:12:31.791Z,94.70
2018-12-07T00:13:09.813Z,94.70
2018-12-07T00:13:49.694Z,94.80
2018-12-07T00:14:28.097Z,94.80
2018-12-07T00:15:06.075Z,94.80
2018-12-07T00:15:44.046Z,94.90
2018-12-07T00:16:21.996Z,94.90
2018-12-07T00:16:59.846Z,94.90
2018-12-07T00:17:37.867Z,95.00
2018-12-07T00:18:15.902Z,95.00
2018-12-07T00:18:54.865Z,95.00
2018-12-07T00:19:32.830Z,95.00
2018-12-07T00:20:12.003Z,94.90
2018-12-07T00:20:50.772Z,94.90
2018-12-07T00:21:29.802Z,94.90
2018-12-07T00:22:07.882Z,94.80
2018-12-07T00:22:45.845Z,94.80
2018-12-07T00:23:24.654Z,94.80
2018-12-07T00:24:02.691Z,94.70
2018-12-07T00:24:40.549Z,94.70
2018-12-07T00:25:18.498Z,94.70
2018-12-07T00:25:57.427Z,94.70
2018-12-07T00:26:36.455Z,94.70
2018-12-07T00:27:14.399Z,94.70
2018-12-07T00:27:52.297Z,94.70
2018-12-07T00:28:30.358Z,94.60
2018-12-07T00:29:08.372Z,94.50
2018-12-07T00:29:46.306Z,94.50
2018-12-07T00:30:24.226Z,94.50
2018-12-07T00:31:02.243Z,94.40
2018-12-07T00:31:41.116Z,94.40
2018-12-07T00:32:19.048Z,94.40
2018-12-07T00:32:57.119Z,94.30
2018-12-07T00:33:35.501Z,94.30
2018-12-07T00:34:14.398Z,94.30
2018-12-07T00:34:53.342Z,94.30
2018-12-07T00:35:31.330Z,94.30
2018-12-07T00:36:09.642Z,94.20
2018-12-07T00:36:47.539Z,94.20
2018-12-07T00:37:25.653Z,94.20
2018-12-07T00:38:03.586Z,94.20
2018-12-07T00:38:41.552Z,94.20
2018-12-07T00:39:19.493Z,94.20
2018-12-07T00:39:57.512Z,94.20
2018-12-07T00:40:36.574Z,94.20
2018-12-07T00:41:14.621Z,94.10
2018-12-07T00:41:52.594Z,94.10
2018-12-07T00:42:30.498Z,94.10
2018-12-07T00:43:09.418Z,94.20
2018-12-07T00:43:48.286Z,94.10
2018-12-07T00:44:27.360Z,94.20
2018-12-07T00:45:07.577Z,94.20
2018-12-07T00:45:45.506Z,94.20
2018-12-07T00:46:23.473Z,94.20
2018-12-07T00:47:03.478Z,94.30
2018-12-07T00:47:41.364Z,94.20
2018-12-07T00:48:19.260Z,94.30
2018-12-07T00:48:58.465Z,94.20
2018-12-07T00:49:36.470Z,94.30
2018-12-07T00:50:14.494Z,94.20
2018-12-07T00:50:53.383Z,94.20
2018-12-07T00:51:31.295Z,94.20
2018-12-07T00:52:09.637Z,94.30
2018-12-07T00:52:48.600Z,94.30
2018-12-07T00:53:27.648Z,94.30
2018-12-07T00:54:05.552Z,94.30
2018-12-07T00:54:43.557Z,94.40
2018-12-07T00:55:30.595Z,94.40
2018-12-07T00:56:08.524Z,94.40
2018-12-07T00:56:46.470Z,94.50
2018-12-07T00:57:26.650Z,94.50
2018-12-07T00:58:05.179Z,94.50
2018-12-07T00:58:43.705Z,94.60
2018-12-07T00:59:21.673Z,94.60
2018-12-07T01:00:00.497Z,94.60
2018-12-07T01:00:38.531Z,94.60
2018-12-07T01:01:16.442Z,94.70
2018-12-07T01:01:57.686Z,94.80
2018-12-07T01:02:36.889Z,94.70
2018-12-07T01:03:15.622Z,94.80
2018-12-07T01:03:53.530Z,94.80
2018-12-07T01:04:31.443Z,94.70
2018-12-07T01:05:09.372Z,94.90
2018-12-07T01:05:47.252Z,95.00
2018-12-07T01:06:28.756Z,95.00
2018-12-07T01:07:06.768Z,94.90
2018-12-07T01:07:44.632Z,94.90
2018-12-07T01:08:22.531Z,94.90
2018-12-07T01:09:00.501Z,94.90
2018-12-07T01:09:38.495Z,95.00
2018-12-07T01:10:16.430Z,95.00
2018-12-07T01:10:57.432Z,95.00
2018-12-07T01:11:39.855Z,95.00
2018-12-07T01:12:17.868Z,95.00
2018-12-07T01:12:55.848Z,95.00
2018-12-07T01:13:33.845Z,95.00
2018-12-07T01:14:11.788Z,95.00
2018-12-07T01:14:50.213Z,94.90
2018-12-07T01:15:29.592Z,95.00
2018-12-07T01:16:07.698Z,95.00
2018-12-07T01:16:46.534Z,95.00
2018-12-07T01:17:24.420Z,95.00
2018-12-07T01:18:03.364Z,95.10
2018-12-07T01:18:42.364Z,95.10
2018-12-07T01:19:20.871Z,95.10
2018-12-07T01:19:58.818Z,95.20
2018-12-07T01:20:36.738Z,95.20
2018-12-07T01:21:15.257Z,95.20
2018-12-07T01:21:53.310Z,95.20
2018-12-07T01:22:32.011Z,95.20
2018-12-07T01:23:09.951Z,95.30
2018-12-07T01:23:48.375Z,95.40
2018-12-07T01:24:26.312Z,95.40
2018-12-07T01:25:04.256Z,95.50
2018-12-07T01:25:42.207Z,95.50
2018-12-07T01:26:20.222Z,95.40
2018-12-07T01:26:58.973Z,95.40
2018-12-07T01:27:38.458Z,95.50
2018-12-07T01:28:16.921Z,95.80
2018-12-07T01:28:54.866Z,95.50
2018-12-07T01:29:34.296Z,95.40
2018-12-07T01:30:12.332Z,95.30
2018-12-07T01:30:50.311Z,95.10
2018-12-07T01:31:29.112Z,95.10
2018-12-07T01:32:10.342Z,95.00
2018-12-07T01:32:48.275Z,95.30
2018-12-07T01:33:26.316Z,95.10
2018-12-07T01:34:04.453Z,95.10
2018-12-07T01:34:43.164Z,95.20
2018-12-07T01:35:21.072Z,95.10
2018-12-07T01:35:59.100Z,95.30
2018-12-07T01:36:39.333Z,95.20
2018-12-07T01:37:17.421Z,95.40
2018-12-07T01:37:55.356Z,95.30
2018-12-07T01:38:33.291Z,95.30
2018-12-07T01:39:11.431Z,95.30
2018-12-07T01:39:49.534Z,95.30
2018-12-07T01:40:28.539Z,95.30
2018-12-07T01:41:07.616Z,95.30
2018-12-07T01:41:45.582Z,95.30
2018-12-07T01:42:23.536Z,95.40
2018-12-07T01:43:01.640Z,95.40
2018-12-07T01:43:39.531Z,95.40
2018-12-07T01:44:17.586Z,95.40
2018-12-07T01:44:55.848Z,95.30
2018-12-07T01:45:34.180Z,95.30
2018-12-07T01:46:12.163Z,95.30
2018-12-07T01:46:50.147Z,95.60
2018-12-07T01:47:28.708Z,95.40
2018-12-07T01:48:07.098Z,95.40
2018-12-07T01:48:45.045Z,95.50
2018-12-07T01:49:23.384Z,95.50
2018-12-07T01:50:01.624Z,95.90
2018-12-07T01:50:39.559Z,95.50
2018-12-07T01:51:17.482Z,95.50
2018-12-07T01:51:56.373Z,95.50
2018-12-07T01:52:36.438Z,95.50
2018-12-07T01:54:21.085Z,95.60
2018-12-07T01:54:59.071Z,95.60
2018-12-07T01:55:36.996Z,95.60
2018-12-07T01:56:15.012Z,95.60
2018-12-07T01:56:53.960Z,95.70
2018-12-07T01:57:31.930Z,95.70
2018-12-07T01:58:10.006Z,95.70
2018-12-07T01:58:49.470Z,95.80
2018-12-07T01:59:27.442Z,95.70
2018-12-07T02:00:06.157Z,95.60
2018-12-07T02:00:44.088Z,95.60
2018-12-07T02:01:22.884Z,95.70
2018-12-07T02:02:00.820Z,95.60
2018-12-07T02:02:39.300Z,95.70
2018-12-07T02:03:17.450Z,95.80
2018-12-07T02:03:55.346Z,95.70
2018-12-07T02:04:33.399Z,95.60
2018-12-07T02:05:11.300Z,95.60
2018-12-07T02:05:49.216Z,95.70
2018-12-07T02:06:29.616Z,95.60
2018-12-07T02:07:12.292Z,95.80
2018-12-07T02:07:52.068Z,95.70
2018-12-07T02:08:30.104Z,95.90
2018-12-07T02:09:09.142Z,95.90
2018-12-07T02:09:47.145Z,95.80
2018-12-07T02:10:25.189Z,95.50
2018-12-07T02:11:03.205Z,95.40
2018-12-07T02:11:42.488Z,95.40
2018-12-07T02:12:20.439Z,95.30
2018-12-07T02:12:58.268Z,95.30
2018-12-07T02:13:37.325Z,95.40
2018-12-07T02:14:15.435Z,95.40
2018-12-07T02:14:53.395Z,95.40
2018-12-07T02:15:35.519Z,95.30
2018-12-07T02:16:14.705Z,95.40
2018-12-07T02:16:52.681Z,95.50
2018-12-07T02:17:31.567Z,95.20
2018-12-07T02:18:09.600Z,95.20
2018-12-07T02:18:47.544Z,95.20
2018-12-07T02:19:25.633Z,95.20
2018-12-07T02:20:04.080Z,95.30
2018-12-07T02:20:43.959Z,95.20
2018-12-07T02:21:21.873Z,95.20
2018-12-07T02:21:59.866Z,95.20
2018-12-07T02:22:38.682Z,95.20
2018-12-07T02:23:17.382Z,95.40
2018-12-07T02:23:55.360Z,95.20
2018-12-07T02:24:34.909Z,95.10
2018-12-07T02:25:12.868Z,95.10
2018-12-07T02:25:50.791Z,95.10
2018-12-07T02:26:28.803Z,95.00
2018-12-07T02:27:06.895Z,95.00
2018-12-07T02:27:48.999Z,95.00
2018-12-07T02:28:26.930Z,95.00
2018-12-07T02:29:05.749Z,94.90
2018-12-07T02:29:43.689Z,94.90
2018-12-07T02:30:21.678Z,94.80
2018-12-07T02:30:59.648Z,94.80
2018-12-07T02:31:37.664Z,94.80
2018-12-07T02:32:15.668Z,94.70
2018-12-07T02:32:57.287Z,94.80
2018-12-07T02:33:36.529Z,94.80
2018-12-07T02:34:14.430Z,94.90
2018-12-07T02:34:52.512Z,94.90
2018-12-07T02:35:30.516Z,94.70
2018-12-07T02:36:09.247Z,94.80
2018-12-07T02:36:47.207Z,94.80
2018-12-07T02:37:26.305Z,94.60
2018-12-07T02:38:04.586Z,94.50
2018-12-07T02:38:42.536Z,94.50
2018-12-07T02:39:21.274Z,94.50
2018-12-07T02:39:59.491Z,94.60
2018-12-07T02:40:43.456Z,94.50
2018-12-07T02:41:22.597Z,94.50
2018-12-07T02:42:00.658Z,94.50
2018-12-07T02:42:38.566Z,94.30
2018-12-07T02:43:17.513Z,94.30
2018-12-07T02:43:55.387Z,94.40
2018-12-07T02:44:33.513Z,94.40
2018-12-07T02:45:11.403Z,94.30
2018-12-07T02:45:50.627Z,94.30
2018-12-07T02:46:28.877Z,94.30
2018-12-07T02:47:07.820Z,94.30
2018-12-07T02:47:45.773Z,94.50
2018-12-07T02:48:23.764Z,94.30
2018-12-07T02:49:01.745Z,94.20
2018-12-07T02:49:40.714Z,94.20
2018-12-07T02:50:19.223Z,94.20
2018-12-07T02:50:59.242Z,94.20
2018-12-07T02:51:37.211Z,94.30
2018-12-07T02:52:15.154Z,94.30
2018-12-07T02:52:53.151Z,94.20
2018-12-07T02:53:31.128Z,94.10
2018-12-07T02:54:09.285Z,94.10
2018-12-07T02:54:47.786Z,94.10
2018-12-07T02:55:25.694Z,94.10
2018-12-07T02:56:03.609Z,94.20
2018-12-07T02:56:41.547Z,94.20
2018-12-07T02:57:19.497Z,94.10
2018-12-07T02:57:57.525Z,94.10
2018-12-07T02:58:36.702Z,94.10
2018-12-07T02:59:15.014Z,94.10
2018-12-07T02:59:53.042Z,94.20
2018-12-07T03:00:32.781Z,94.20
2018-12-07T03:01:11.091Z,94.10
2018-12-07T03:01:49.261Z,93.90
2018-12-07T03:02:27.203Z,93.80
2018-12-07T03:03:05.247Z,93.70
2018-12-07T03:03:44.335Z,93.60
2018-12-07T03:04:23.518Z,93.60
2018-12-07T03:05:01.573Z,93.70
2018-12-07T03:05:39.651Z,93.80
2018-12-07T03:06:18.692Z,93.70
2018-12-07T03:06:57.572Z,93.70
2018-12-07T03:07:35.506Z,93.80
2018-12-07T03:08:16.320Z,93.80
2018-12-07T03:08:54.411Z,93.90
2018-12-07T03:09:32.408Z,94.00
2018-12-07T03:10:10.478Z,93.90
2018-12-07T03:10:48.512Z,93.80
2018-12-07T03:11:26.428Z,93.70
2018-12-07T03:12:06.755Z,93.70
2018-12-07T03:12:46.515Z,93.60
2018-12-07T03:13:24.465Z,93.70
2018-12-07T03:14:02.329Z,93.80
2018-12-07T03:14:40.244Z,93.60
2018-12-07T03:15:19.074Z,93.60
2018-12-07T03:15:57.070Z,93.60
2018-12-07T03:16:36.403Z,93.60
2018-12-07T03:17:17.235Z,93.50
2018-12-07T03:17:55.094Z,93.40
2018-12-07T03:18:35.283Z,93.20
2018-12-07T03:19:13.219Z,93.20
2018-12-07T03:19:51.168Z,93.10
2018-12-07T03:20:31.175Z,92.70
2018-12-07T03:21:12.086Z,92.40
2018-12-07T03:21:51.176Z,92.30
2018-12-07T03:22:29.162Z,92.20
2018-12-07T03:23:07.205Z,92.20
2018-12-07T03:23:45.171Z,92.10
2018-12-07T03:24:23.081Z,92.10
2018-12-07T03:25:02.564Z,92.10
2018-12-07T03:25:42.049Z,92.00
2018-12-07T03:26:22.720Z,91.70
2018-12-07T03:27:00.634Z,91.70
2018-12-07T03:27:38.589Z,91.70
2018-12-07T03:28:16.567Z,91.80
2018-12-07T03:28:54.518Z,91.70
2018-12-07T03:29:34.474Z,91.70
2018-12-07T03:30:12.381Z,91.40
2018-12-07T03:30:50.495Z,91.60
2018-12-07T03:31:28.550Z,91.60
2018-12-07T03:32:06.455Z,91.60
2018-12-07T03:33:47.506Z,91.20
2018-12-07T03:34:25.420Z,91.00
2018-12-07T03:35:04.216Z,91.10
2018-12-07T03:35:42.184Z,91.20
2018-12-07T03:36:20.176Z,91.20
2018-12-07T03:36:59.022Z,91.00
2018-12-07T03:37:36.959Z,91.40
2018-12-07T03:38:15.126Z,91.00
2018-12-07T03:38:53.116Z,91.00
2018-12-07T03:39:31.023Z,90.90
2018-12-07T03:40:09.136Z,90.80
2018-12-07T03:40:47.159Z,90.80
2018-12-07T03:41:25.113Z,90.90
2018-12-07T03:42:03.378Z,90.90
2018-12-07T03:42:42.942Z,90.40
2018-12-07T03:43:21.381Z,90.20
2018-12-07T03:43:59.226Z,90.10
2018-12-07T03:44:37.184Z,90.10
2018-12-07T03:45:15.101Z,90.30
2018-12-07T03:45:52.973Z,90.30
2018-12-07T03:46:32.312Z,89.70
2018-12-07T03:47:10.367Z,89.40
2018-12-07T03:47:48.247Z,89.50
2018-12-07T03:48:26.171Z,88.80
2018-12-07T03:49:04.133Z,88.30
2018-12-07T03:49:42.057Z,87.80
2018-12-07T03:50:19.972Z,87.70
2018-12-07T03:50:58.416Z,87.20
2018-12-07T03:51:36.306Z,87.30
2018-12-07T03:52:14.690Z,87.40
2018-12-07T03:52:52.627Z,87.50
2018-12-07T03:53:30.648Z,87.70
2018-12-07T03:54:10.616Z,87.80
2018-12-07T03:54:50.089Z,87.20
2018-12-07T03:55:29.808Z,86.70
2018-12-07T03:56:07.919Z,86.80
2018-12-07T03:56:45.938Z,86.80
2018-12-07T03:57:23.902Z,86.50
2018-12-07T03:58:02.762Z,86.00
2018-12-07T03:58:41.504Z,86.00
2018-12-07T03:59:20.587Z,86.00
2018-12-07T04:00:00.525Z,85.70
2018-12-07T04:00:38.575Z,85.90
2018-12-07T04:01:16.935Z,86.00
2018-12-07T04:01:54.917Z,85.40
2018-12-07T04:02:32.868Z,85.30
2018-12-07T04:03:10.872Z,85.30
2018-12-07T04:03:51.030Z,85.40
2018-12-07T04:04:29.009Z,85.20
2018-12-07T04:05:07.020Z,85.10
2018-12-07T04:05:44.927Z,85.30
2018-12-07T04:06:23.023Z,85.00
2018-12-07T04:07:01.071Z,85.10
2018-12-07T04:07:39.122Z,85.00
2018-12-07T04:08:19.605Z,84.80
2018-12-07T04:08:57.933Z,84.90
2018-12-07T04:09:37.046Z,84.60
2018-12-07T04:10:15.129Z,84.60
2018-12-07T04:10:53.012Z,85.00
2018-12-07T04:11:31.025Z,84.80
2018-12-07T04:12:10.344Z,85.00
2018-12-07T04:12:48.639Z,84.90
2018-12-07T04:13:26.674Z,84.60
2018-12-07T04:14:04.647Z,85.00
2018-12-07T04:14:42.588Z,85.40
2018-12-07T04:15:21.376Z,85.30
2018-12-07T04:16:00.309Z,85.50
2018-12-07T04:16:40.604Z,85.10
2018-12-07T04:17:19.769Z,85.00
2018-12-07T04:17:57.750Z,85.30
2018-12-07T04:18:36.569Z,85.40
2018-12-07T04:19:14.439Z,85.20
2018-12-07T04:19:52.447Z,85.30
2018-12-07T04:20:31.349Z,85.00
2018-12-07T04:21:13.512Z,84.40
2018-12-07T04:21:51.367Z,84.50
2018-12-07T04:22:30.164Z,83.50
2018-12-07T04:23:08.120Z,83.60
2018-12-07T04:23:46.737Z,83.50
2018-12-07T04:24:24.708Z,83.30
2018-12-07T04:25:03.860Z,83.40
2018-12-07T04:25:42.514Z,83.50
2018-12-07T04:26:20.440Z,83.70
2018-12-07T04:27:00.298Z,84.20
2018-12-07T04:27:38.272Z,84.20
2018-12-07T04:28:16.897Z,83.70
2018-12-07T04:28:54.885Z,83.10
2018-12-07T04:29:34.686Z,82.80
2018-12-07T04:30:24.674Z,82.30
2018-12-07T04:31:04.257Z,82.10
2018-12-07T04:31:42.250Z,82.10
2018-12-07T04:32:20.200Z,82.20
2018-12-07T04:32:58.503Z,82.00
2018-12-07T04:33:36.781Z,82.20
2018-12-07T04:34:16.247Z,82.50
2018-12-07T04:34:54.600Z,82.40
2018-12-07T04:35:32.707Z,82.40
2018-12-07T04:36:10.686Z,82.50
2018-12-07T04:36:48.641Z,81.80
2018-12-07T04:37:27.583Z,81.70
2018-12-07T04:38:05.597Z,81.40
2018-12-07T04:38:43.882Z,81.40
2018-12-07T04:39:21.839Z,81.20
2018-12-07T04:39:59.721Z,80.80
2018-12-07T04:40:37.732Z,80.30
2018-12-07T04:41:15.723Z,79.80
2018-12-07T04:41:53.787Z,80.00
2018-12-07T04:42:31.708Z,80.10
2018-12-07T04:43:10.145Z,80.20
2018-12-07T04:43:48.130Z,80.00
2018-12-07T04:44:26.095Z,80.30
2018-12-07T04:45:04.183Z,80.60
2018-12-07T04:45:42.116Z,80.80
2018-12-07T04:46:20.069Z,81.40
2018-12-07T04:46:59.458Z,80.80
2018-12-07T04:47:37.756Z,80.00
2018-12-07T04:48:15.653Z,79.30
2018-12-07T04:48:53.794Z,78.40
2018-12-07T04:49:31.712Z,78.20
2018-12-07T04:50:09.738Z,78.40
2018-12-07T04:50:47.847Z,78.10
2018-12-07T04:51:26.438Z,78.40
2018-12-07T04:52:05.807Z,78.70
2018-12-07T04:52:43.809Z,79.10
2018-12-07T04:53:21.758Z,79.40
2018-12-07T04:53:59.814Z,79.40
2018-12-07T04:54:37.844Z,80.10
2018-12-07T04:55:15.738Z,80.20
2018-12-07T04:55:55.717Z,80.50
2018-12-07T04:56:33.975Z,80.40
2018-12-07T04:57:11.869Z,79.90
2018-12-07T04:57:49.783Z,79.80
2018-12-07T04:58:27.719Z,80.00
2018-12-07T04:59:06.410Z,80.00
2018-12-07T04:59:44.257Z,79.80
2018-12-07T05:00:23.557Z,79.90
2018-12-07T05:01:01.567Z,79.60
2018-12-07T05:01:40.409Z,78.80
2018-12-07T05:02:19.314Z,78.70
2018-12-07T05:02:57.353Z,78.80
2018-12-07T05:03:36.353Z,79.00
2018-12-07T05:04:15.410Z,79.20
2018-12-07T05:04:53.672Z,79.60
2018-12-07T05:05:32.051Z,79.70
2018-12-07T05:06:10.365Z,79.70
2018-12-07T05:06:48.976Z,79.70
2018-12-07T05:07:28.530Z,79.30
2018-12-07T05:08:08.087Z,79.20
2018-12-07T05:08:46.225Z,79.20
2018-12-07T05:09:25.129Z,79.70
2018-12-07T05:10:03.128Z,79.80
2018-12-07T05:10:41.270Z,80.00
2018-12-07T05:11:19.570Z,80.30
2018-12-07T05:11:57.592Z,79.60
2018-12-07T05:12:35.497Z,79.60
2018-12-07T05:13:15.112Z,79.20
2018-12-07T05:13:53.174Z,78.80
2018-12-07T05:14:31.177Z,78.30
2018-12-07T05:15:09.536Z,77.70
2018-12-07T05:15:49.249Z,77.90
2018-12-07T05:16:27.266Z,77.40
2018-12-07T05:17:05.216Z,77.10
2018-12-07T05:17:43.409Z,77.10
2018-12-07T05:18:21.476Z,77.20
2018-12-07T05:19:00.694Z,77.50
2018-12-07T05:19:38.727Z,77.50
2018-12-07T05:20:18.489Z,77.30
2018-12-07T05:20:57.804Z,77.60
2018-12-07T05:21:46.770Z,78.50
2018-12-07T05:22:26.470Z,78.50
2018-12-07T05:23:06.099Z,79.00
2018-12-07T05:23:44.778Z,79.30
2018-12-07T05:24:23.252Z,78.50
2018-12-07T05:25:01.922Z,78.30
2018-12-07T05:25:40.419Z,78.40
2018-12-07T05:26:18.397Z,78.50
2018-12-07T05:26:58.233Z,78.50
2018-12-07T05:27:37.709Z,78.80
2018-12-07T05:28:15.704Z,79.10
2018-12-07T05:28:53.760Z,79.20
2018-12-07T05:29:31.717Z,78.60
2018-12-07T05:30:10.992Z,77.80
2018-12-07T05:30:50.056Z,77.10
2018-12-07T05:31:27.992Z,75.20
2018-12-07T05:32:05.959Z,75.30
2018-12-07T05:32:43.932Z,75.10
2018-12-07T05:33:21.878Z,74.70
2018-12-07T05:33:59.966Z,74.60
2018-12-07T05:34:39.258Z,75.00
2018-12-07T05:35:18.380Z,75.10
2018-12-07T05:35:56.363Z,75.70
2018-12-07T05:36:34.373Z,75.90
2018-12-07T05:37:13.105Z,76.20
2018-12-07T05:37:50.933Z,76.20
2018-12-07T05:38:28.917Z,76.00
2018-12-07T05:39:14.041Z,76.00
2018-12-07T05:39:53.353Z,76.00
2018-12-07T05:40:31.471Z,75.90
2018-12-07T05:41:09.365Z,75.60
2018-12-07T05:41:47.393Z,75.70
2018-12-07T05:42:25.242Z,76.10
2018-12-07T05:43:04.213Z,75.80
2018-12-07T05:43:54.261Z,75.00
2018-12-07T05:44:32.285Z,74.80
2018-12-07T05:45:10.271Z,75.20
2018-12-07T05:45:48.220Z,75.40
2018-12-07T05:46:26.203Z,75.60
2018-12-07T05:47:04.104Z,75.50
2018-12-07T05:47:42.026Z,75.90
2018-12-07T05:48:23.728Z,74.50
2018-12-07T05:49:01.192Z,73.80
2018-12-07T05:49:39.089Z,73.50
2018-12-07T05:50:16.984Z,73.40
2018-12-07T05:50:54.996Z,73.60
2018-12-07T05:51:32.979Z,73.70
2018-12-07T05:52:12.331Z,73.40
2018-12-07T05:52:50.400Z,73.10
2018-12-07T05:53:28.421Z,73.40
2018-12-07T05:54:06.592Z,73.30
2018-12-07T05:54:45.474Z,73.40
2018-12-07T05:55:23.440Z,73.20
2018-12-07T05:56:02.041Z,73.50
2018-12-07T05:56:40.208Z,72.70
2018-12-07T05:57:18.299Z,72.60
2018-12-07T05:57:56.243Z,72.00
2018-12-07T05:58:35.208Z,72.20
2018-12-07T05:59:13.183Z,72.00
2018-12-07T05:59:52.870Z,71.80
2018-12-07T06:00:30.838Z,71.00
2018-12-07T06:01:11.344Z,70.90
2018-12-07T06:01:49.287Z,71.10
2018-12-07T06:02:27.271Z,71.90
2018-12-07T06:03:05.336Z,72.10
2018-12-07T06:03:43.186Z,72.20
2018-12-07T06:04:22.128Z,72.10
2018-12-07T06:05:01.133Z,72.30
2018-12-07T06:05:41.337Z,71.90
2018-12-07T06:06:19.266Z,71.50
2018-12-07T06:06:57.114Z,71.60
2018-12-07T06:07:35.007Z,71.40
2018-12-07T06:08:13.084Z,71.40
2018-12-07T06:08:51.683Z,71.70
2018-12-07T06:09:29.507Z,71.80
2018-12-07T06:10:07.877Z,71.90
2018-12-07T06:10:46.761Z,72.20
2018-12-07T06:11:24.740Z,72.50
2018-12-07T06:12:02.748Z,72.20
2018-12-07T06:12:40.739Z,72.20
2018-12-07T06:13:18.817Z,72.40
2018-12-07T06:13:58.879Z,72.40
2018-12-07T06:14:36.956Z,72.70
2018-12-07T06:15:15.789Z,72.70
2018-12-07T06:15:53.822Z,72.50
2018-12-07T06:16:32.542Z,72.80
2018-12-07T06:17:10.446Z,72.90
2018-12-07T06:17:49.606Z,73.00
2018-12-07T06:18:27.760Z,73.40
2018-12-07T06:19:05.728Z,73.70
2018-12-07T06:19:43.699Z,73.80
2018-12-07T06:20:21.556Z,74.40
2018-12-07T06:20:59.484Z,74.70
2018-12-07T06:21:37.387Z,74.50
2018-12-07T06:22:16.987Z,74.50
2018-12-07T06:22:55.405Z,74.30
2018-12-07T06:23:33.306Z,74.00
2018-12-07T06:24:11.287Z,74.10
2018-12-07T06:24:50.333Z,74.20
2018-12-07T06:25:28.887Z,74.10
2018-12-07T06:26:07.007Z,74.30
2018-12-07T06:26:47.026Z,74.60
2018-12-07T06:27:30.896Z,74.70
2018-12-07T06:28:09.029Z,74.70
2018-12-07T06:28:46.968Z,75.10
2018-12-07T06:29:24.847Z,75.30
2018-12-07T06:30:05.658Z,75.50
2018-12-07T06:30:44.692Z,75.70
2018-12-07T06:31:22.660Z,76.10
2018-12-07T06:32:00.734Z,76.40
2018-12-07T06:32:38.737Z,76.30
2018-12-07T06:33:16.673Z,76.30
2018-12-07T06:33:54.750Z,76.40
2018-12-07T06:34:32.814Z,76.40
2018-12-07T06:35:10.732Z,76.40
2018-12-07T06:35:48.737Z,76.70
2018-12-07T06:36:27.649Z,76.80
2018-12-07T06:37:06.361Z,76.90
2018-12-07T06:37:44.421Z,77.10
2018-12-07T06:38:22.440Z,76.90
2018-12-07T06:39:00.897Z,77.20
2018-12-07T06:39:38.865Z,77.50
2018-12-07T06:40:16.834Z,77.90
2018-12-07T06:40:54.798Z,77.80
2018-12-07T06:41:32.814Z,77.40
2018-12-07T06:42:13.776Z,77.00
2018-12-07T06:42:51.775Z,76.90
2018-12-07T06:43:32.425Z,77.10
2018-12-07T06:44:10.423Z,77.40
2018-12-07T06:44:48.399Z,77.30
2018-12-07T06:45:27.213Z,77.10
2018-12-07T06:46:06.488Z,77.10
2018-12-07T06:46:46.360Z,76.80
2018-12-07T06:47:24.455Z,76.70
2018-12-07T06:48:03.450Z,76.80
2018-12-07T06:48:42.661Z,77.60
2018-12-07T06:49:20.670Z,76.90
2018-12-07T06:49:59.059Z,76.80
2018-12-07T06:50:37.923Z,76.80
2018-12-07T06:51:15.972Z,76.70
2018-12-07T06:51:53.820Z,76.50
2018-12-07T06:52:45.493Z,76.40
2018-12-07T06:53:24.233Z,75.90
2018-12-07T06:54:02.183Z,75.40
2018-12-07T06:54:40.831Z,75.30
2018-12-07T06:55:19.738Z,75.20
2018-12-07T06:55:57.708Z,75.20
2018-12-07T06:56:35.726Z,75.30
2018-12-07T06:57:18.019Z,75.50
2018-12-07T06:57:55.923Z,75.60
2018-12-07T06:58:33.845Z,75.60
2018-12-07T06:59:11.848Z,75.30
2018-12-07T06:59:49.744Z,75.30
2018-12-07T07:00:28.567Z,75.20
2018-12-07T07:01:06.669Z,75.30
2018-12-07T07:01:46.889Z,75.30
2018-12-07T07:02:26.071Z,75.40
2018-12-07T07:03:04.950Z,75.30
2018-12-07T07:03:42.915Z,75.00
2018-12-07T07:04:21.792Z,74.80
2018-12-07T07:04:59.800Z,74.80
2018-12-07T07:05:38.584Z,74.80
2018-12-07T07:06:17.533Z,74.90
2018-12-07T07:06:55.437Z,74.80
2018-12-07T07:07:34.180Z,74.90
2018-12-07T07:08:12.048Z,74.90
2018-12-07T07:08:50.059Z,75.10
2018-12-07T07:09:27.919Z,75.00
2018-12-07T07:10:07.851Z,75.10
2018-12-07T07:10:46.160Z,75.00
2018-12-07T07:11:24.691Z,74.90
2018-12-07T07:12:02.616Z,74.60
2018-12-07T07:12:41.489Z,74.50
2018-12-07T07:13:19.479Z,74.50
2018-12-07T07:13:57.330Z,74.50
2018-12-07T07:14:39.151Z,74.50
2018-12-07T07:15:18.563Z,74.60
2018-12-07T07:15:56.495Z,74.40
2018-12-07T07:16:34.516Z,74.30
2018-12-07T07:17:12.381Z,74.50
2018-12-07T07:17:50.373Z,74.30
2018-12-07T07:18:28.242Z,74.30
2018-12-07T07:19:06.789Z,74.30
2018-12-07T07:19:44.887Z,74.30
2018-12-07T07:20:23.452Z,74.20
2018-12-07T07:21:01.408Z,74.10
2018-12-07T07:21:39.432Z,74.00
2018-12-07T07:22:17.725Z,73.90
2018-12-07T07:22:55.737Z,73.50
2018-12-07T07:23:34.214Z,73.30
2018-12-07T07:24:12.107Z,73.40
2018-12-07T07:24:50.052Z,73.40
2018-12-07T07:25:28.027Z,73.40
2018-12-07T07:26:05.912Z,73.20
2018-12-07T07:26:43.780Z,73.10
2018-12-07T07:27:22.087Z,72.90
2018-12-07T07:28:00.173Z,72.70
2018-12-07T07:28:38.953Z,72.70
2018-12-07T07:29:16.866Z,72.70
2018-12-07T07:29:55.605Z,72.50
2018-12-07T07:30:33.453Z,72.10
2018-12-07T07:31:11.370Z,72.00
2018-12-07T07:31:49.588Z,71.90
2018-12-07T07:32:28.328Z,71.70
2018-12-07T07:33:06.288Z,71.50
2018-12-07T07:33:44.289Z,71.20
2018-12-07T07:34:22.203Z,71.10
2018-12-07T07:35:00.245Z,71.10
2018-12-07T07:35:38.246Z,71.10
2018-12-07T07:36:17.419Z,71.20
2018-12-07T07:36:55.362Z,71.20
2018-12-07T07:37:33.213Z,71.40
2018-12-07T07:38:11.130Z,71.40
2018-12-07T07:38:49.045Z,71.40
2018-12-07T07:39:27.054Z,71.30
2018-12-07T07:40:04.995Z,71.40
2018-12-07T07:40:44.320Z,71.40
2018-12-07T07:41:22.376Z,71.40
2018-12-07T07:42:00.338Z,71.30
2018-12-07T07:42:38.218Z,71.40
2018-12-07T07:43:17.253Z,71.40
2018-12-07T07:43:55.474Z,71.40
2018-12-07T07:44:33.663Z,71.40
2018-12-07T07:45:14.027Z,71.70
2018-12-07T07:45:51.972Z,71.80
2018-12-07T07:46:29.976Z,72.00
2018-12-07T07:47:08.232Z,72.00
2018-12-07T07:47:46.116Z,72.10
2018-12-07T07:48:24.170Z,72.10
2018-12-07T07:49:02.994Z,72.30
2018-12-07T07:49:42.604Z,72.30
2018-12-07T07:50:21.448Z,72.50
2018-12-07T07:50:59.443Z,72.50
2018-12-07T07:51:37.570Z,72.50
2018-12-07T07:52:15.728Z,72.50
2018-12-07T07:52:54.773Z,72.60
2018-12-07T07:53:35.873Z,72.80
2018-12-07T07:54:14.265Z,72.90
2018-12-07T07:54:53.387Z,73.50
2018-12-07T07:55:31.328Z,73.00
2018-12-07T07:56:15.304Z,72.90
2018-12-07T07:56:49.408Z,73.00
2018-12-07T07:57:27.379Z,72.80
2018-12-07T07:58:06.761Z,72.50
2018-12-07T07:58:44.841Z,72.20
2018-12-07T07:59:22.793Z,72.30
2018-12-07T08:00:00.718Z,72.30
2018-12-07T08:00:38.736Z,72.30
2018-12-07T08:01:16.662Z,72.50
2018-12-07T08:01:54.704Z,72.70
2018-12-07T08:02:33.936Z,72.50
2018-12-07T08:03:11.956Z,72.60
2018-12-07T08:03:49.833Z,72.60
2018-12-07T08:04:27.840Z,72.60
2018-12-07T08:05:05.767Z,72.60
2018-12-07T08:05:43.678Z,72.60
2018-12-07T08:06:22.479Z,72.60
2018-12-07T08:07:01.209Z,72.60
2018-12-07T08:07:39.246Z,72.60
2018-12-07T08:08:17.210Z,72.80
2018-12-07T08:08:55.949Z,72.90
2018-12-07T08:09:34.011Z,72.90
2018-12-07T08:10:13.303Z,73.10
2018-12-07T08:10:51.531Z,73.00
2018-12-07T08:11:29.908Z,73.00
2018-12-07T08:12:11.750Z,73.10
2018-12-07T08:12:50.503Z,73.10
2018-12-07T08:13:28.459Z,73.20
2018-12-07T08:14:07.475Z,73.30
2018-12-07T08:14:45.510Z,73.50
2018-12-07T08:15:24.144Z,73.80
2018-12-07T08:16:02.229Z,74.00
2018-12-07T08:16:40.161Z,74.00
2018-12-07T08:17:18.044Z,74.10
2018-12-07T08:17:56.936Z,74.30
2018-12-07T08:18:34.921Z,74.30
2018-12-07T08:19:12.884Z,74.40
2018-12-07T08:19:51.795Z,74.50